Time;durP1;ratioP1;P1;durP2;ratioP2;P2;SDS_P1;SDS_P2;PMS_P1;PMS_P2;Temp;Humidity;BMP_temperature;BMP_pressure;BME280_temperature;BME280_humidity;BME280_pressure;Samples;Min_cycle;Max_cycle;Signal;HPM_P1;HPM_P2
2022/06/15 00:01:05;;;;;;;7.40;3.20;;;17.00;99.90;;;;;;6182374;23;20801;-84
2022/06/15 00:04:13;;;;;;;4.30;3.03;;;16.90;99.90;;;;;;6190676;23;20397;-86
2022/06/15 00:07:01;;;;;;;8.27;3.50;;;16.90;99.90;;;;;;6190966;23;20713;-88
2022/06/15 00:10:05;;;;;;;6.33;2.73;;;16.90;99.90;;;;;;6152434;23;20392;-86
2022/06/15 00:16:08;;;;;;;;;;;;;;;;;;;;;
2022/06/15 00:18:46;;;;;;;7.40;3.70;;;16.80;99.90;;;;;;6186676;23;20463;-83
2022/06/15 00:40:22;;;;;;;6.27;2.93;;;16.60;99.90;;;;;;6183044;23;20476;-84
2022/06/15 00:43:35;;;;;;;;;;;;;;;;;;;;;
2022/06/15 00:47:15;;;;;;;;;;;;;;;;;;;;;
2022/06/15 00:49:50;;;;;;;7.73;3.30;;;16.60;99.90;;;;;;6172648;23;20389;-86
2022/06/15 00:52:55;;;;;;;;;;;;;;;;;;;;;
2022/06/15 00:56:31;;;;;;;8.57;4.03;;;16.50;99.90;;;;;;6192464;23;20814;-86
2022/06/15 00:59:28;;;;;;;;;;;;;;;;;;;;;
2022/06/15 01:02:42;;;;;;;6.50;3.53;;;16.40;99.90;;;;;;6188832;23;20425;-87
2022/06/15 01:09:18;;;;;;;7.00;4.33;;;16.40;99.90;;;;;;6177529;23;20392;-86
2022/06/15 01:12:21;;;;;;;;;;;;;;;;;;;;;
2022/06/15 01:18:39;;;;;;;4.30;3.43;;;16.20;99.90;;;;;;6191422;23;20393;-84
2022/06/15 01:21:12;;;;;;;13.53;4.30;;;16.20;99.90;;;;;;6191605;23;20383;-86
2022/06/15 01:27:43;;;;;;;6.63;4.90;;;16.10;99.90;;;;;;6192727;23;20407;-86
2022/06/15 01:30:32;;;;;;;;;;;;;;;;;;;;;
2022/06/15 01:39:51;;;;;;;8.90;5.27;;;15.90;99.90;;;;;;6177425;23;20546;-86
2022/06/15 01:42:27;;;;;;;8.87;4.37;;;15.90;99.90;;;;;;6166496;23;20506;-86
2022/06/15 01:45:06;;;;;;;7.17;4.23;;;15.80;99.90;;;;;;6193946;23;20368;-86
2022/06/15 01:47:41;;;;;;;9.13;4.93;;;15.80;99.90;;;;;;6166705;23;20410;-86
2022/06/15 01:50:21;;;;;;;8.13;3.93;;;15.80;99.90;;;;;;6193347;23;20370;-85
2022/06/15 01:53:03;;;;;;;12.60;4.87;;;15.80;99.90;;;;;;6166483;23;20412;-86
2022/06/15 01:55:46;;;;;;;6.53;4.57;;;15.70;99.90;;;;;;6166731;23;20950;-85
2022/06/15 02:01:43;;;;;;;7.27;4.17;;;15.70;99.90;;;;;;6182138;23;20411;-87
2022/06/15 02:04:56;;;;;;;;;;;;;;;;;;;;;
2022/06/15 02:08:22;;;;;;;10.53;4.60;;;15.60;99.90;;;;;;6192525;23;20388;-88
2022/06/15 02:14:59;;;;;;;;;;;;;;;;;;;;;
2022/06/15 02:24:45;;;;;;;;;;;;;;;;;;;;;
2022/06/15 02:27:22;;;;;;;7.60;4.33;;;15.50;99.90;;;;;;6191893;23;20368;-87
2022/06/15 02:33:56;;;;;;;;;;;;;;;;;;;;;
2022/06/15 02:36:37;;;;;;;;;;;;;;;;;;;;;
2022/06/15 02:39:13;;;;;;;7.00;4.00;;;15.40;99.90;;;;;;6193235;23;20392;-85
2022/06/15 02:44:43;;;;;;;9.90;4.57;;;15.40;99.90;;;;;;6182587;23;20398;-86
2022/06/15 02:47:39;;;;;;;;;;;;;;;;;;;;;
2022/06/15 02:50:29;;;;;;;9.73;5.07;;;15.30;99.90;;;;;;6188912;23;20430;-84
2022/06/15 02:53:19;;;;;;;;;;;;;;;;;;;;;
2022/06/15 03:03:08;;;;;;;;;;;;;;;;;;;;;
2022/06/15 03:06:30;;;;;;;;;;;;;;;;;;;;;
2022/06/15 03:09:32;;;;;;;;;;;;;;;;;;;;;
2022/06/15 03:12:35;;;;;;;;;;;;;;;;;;;;;
2022/06/15 03:15:17;;;;;;;;;;;;;;;;;;;;;
2022/06/15 03:18:35;;;;;;;;;;;;;;;;;;;;;
2022/06/15 03:21:24;;;;;;;7.80;5.20;;;15.00;99.90;;;;;;6197614;23;20418;-84
2022/06/15 03:24:25;;;;;;;;;;;;;;;;;;;;;
2022/06/15 03:26:58;;;;;;;13.60;5.03;;;15.00;99.90;;;;;;6195224;23;20397;-84
2022/06/15 03:29:58;;;;;;;;;;;;;;;;;;;;;
2022/06/15 03:42:53;;;;;;;8.50;5.40;;;14.90;99.90;;;;;;6181888;23;20408;-86
2022/06/15 03:46:12;;;;;;;;;;;;;;;;;;;;;
2022/06/15 03:49:35;;;;;;;6.20;5.60;;;14.90;99.90;;;;;;6186104;23;20430;-87
2022/06/15 03:52:10;;;;;;;8.57;4.60;;;15.00;99.90;;;;;;6193742;23;20360;-83
2022/06/15 04:01:55;;;;;;;;;;;;;;;;;;;;;
2022/06/15 04:11:04;;;;;;;9.50;5.10;;;15.20;99.90;;;;;;6195007;23;20363;-86
2022/06/15 04:13:43;;;;;;;9.67;5.53;;;15.20;99.90;;;;;;6195965;23;20907;-87
2022/06/15 04:17:17;;;;;;;16.20;5.63;;;15.20;99.90;;;;;;6191815;23;20751;-88
2022/06/15 04:23:13;;;;;;;8.50;5.37;;;15.40;99.90;;;;;;6195535;23;20406;-87
2022/06/15 04:26:28;;;;;;;11.13;5.70;;;15.40;99.90;;;;;;6193320;23;20445;-86
2022/06/15 04:31:47;;;;;;;7.20;5.30;;;15.60;99.90;;;;;;6185075;23;20417;-87
2022/06/15 04:37:34;;;;;;;13.50;5.30;;;15.70;99.90;;;;;;6133478;23;20484;-88
2022/06/15 04:40:42;;;;;;;;;;;;;;;;;;;;;
2022/06/15 04:43:45;;;;;;;9.10;5.70;;;15.90;99.90;;;;;;6195643;23;20424;-87
2022/06/15 05:01:49;;;;;;;12.20;6.10;;;16.30;99.90;;;;;;6184741;23;20390;-87
2022/06/15 05:05:03;;;;;;;;;;;;;;;;;;;;;
2022/06/15 05:10:37;;;;;;;14.77;6.60;;;16.50;99.90;;;;;;6183271;23;20918;-86
2022/06/15 05:16:28;;;;;;;;;;;;;;;;;;;;;
2022/06/15 05:19:06;;;;;;;7.60;6.40;;;16.80;99.90;;;;;;6194874;23;20401;-83
2022/06/15 05:28:23;;;;;;;10.60;7.03;;;16.90;99.90;;;;;;6181519;23;20394;-84
2022/06/15 05:31:24;;;;;;;;;;;;;;;;;;;;;
2022/06/15 05:34:18;;;;;;;10.20;6.50;;;17.00;99.90;;;;;;6188440;23;20440;-84
2022/06/15 05:37:21;;;;;;;;;;;;;;;;;;;;;
2022/06/15 05:40:07;;;;;;;;;;;;;;;;;;;;;
2022/06/15 05:42:49;;;;;;;10.40;6.73;;;17.50;99.90;;;;;;6193985;23;20417;-84
2022/06/15 05:45:52;;;;;;;;;;;;;;;;;;;;;
2022/06/15 05:48:57;;;;;;;;;;;;;;;;;;;;;
2022/06/15 05:51:52;;;;;;;15.17;6.50;;;17.80;99.90;;;;;;6194036;23;20397;-84
2022/06/15 05:54:48;;;;;;;;;;;;;;;;;;;;;
2022/06/15 05:57:48;;;;;;;;;;;;;;;;;;;;;
2022/06/15 06:00:25;;;;;;;12.57;7.33;;;18.40;99.90;;;;;;6190769;23;20426;-83
2022/06/15 06:03:23;;;;;;;;;;;;;;;;;;;;;
2022/06/15 06:06:09;;;;;;;;;;;;;;;;;;;;;
2022/06/15 06:08:55;;;;;;;9.57;5.87;;;18.90;99.90;;;;;;6194307;23;20389;-83
2022/06/15 06:11:49;;;;;;;9.03;6.07;;;19.30;99.90;;;;;;6195350;23;20702;-84
2022/06/15 06:18:21;;;;;;;6.83;4.90;;;22.80;99.90;;;;;;6191249;23;20983;-84
2022/06/15 06:21:20;;;;;;;9.67;5.40;;;29.20;99.90;;;;;;6171743;23;20386;-83
2022/06/15 06:28:05;;;;;;;7.57;4.10;;;37.30;99.90;;;;;;6155813;23;20407;-84
2022/06/15 06:36:46;;;;;;;10.70;3.67;;;43.80;99.90;;;;;;6191533;22;20993;-85
2022/06/15 06:39:18;;;;;;;6.03;3.27;;;45.10;99.90;;;;;;6213825;23;20710;-87
2022/06/15 06:41:44;;;;;;;4.20;3.40;;;46.60;99.90;;;;;;6212963;23;20404;-85
2022/06/15 06:44:13;;;;;;;7.63;3.50;;;47.90;99.90;;;;;;6214468;23;20371;-86
2022/06/15 06:46:42;;;;;;;7.10;3.20;;;48.90;99.90;;;;;;6230770;23;20195;-85
2022/06/15 06:49:08;;;;;;;12.20;3.90;;;49.90;99.90;;;;;;6252795;22;20787;-86
2022/06/15 06:51:40;;;;;;;5.10;3.60;;;50.70;99.90;;;;;;6252871;23;20406;-86
2022/06/15 06:54:10;;;;;;;8.83;3.37;;;51.10;99.90;;;;;;6252759;22;20128;-87
2022/06/15 06:56:36;;;;;;;8.53;3.13;;;51.60;99.90;;;;;;6242091;22;20465;-85
2022/06/15 06:59:03;;;;;;;7.70;3.90;;;52.50;99.90;;;;;;6244597;23;20152;-85
2022/06/15 07:01:28;;;;;;;4.33;3.13;;;53.70;99.90;;;;;;6243479;22;20554;-85
2022/06/15 07:03:54;;;;;;;6.30;3.38;;;53.90;99.90;;;;;;6243115;23;20153;-84
2022/06/15 07:06:19;;;;;;;6.20;4.05;;;55.50;99.90;;;;;;6244717;22;20501;-84
2022/06/15 07:08:45;;;;;;;5.80;3.72;;;57.20;99.90;;;;;;6247769;23;20541;-86
2022/06/15 07:11:15;;;;;;;6.78;3.67;;;58.30;99.90;;;;;;6244505;23;20202;-84
2022/06/15 07:13:41;;;;;;;7.75;4.15;;;59.60;99.90;;;;;;6243580;23;20211;-87
2022/06/15 07:16:11;;;;;;;4.82;3.38;;;60.30;99.90;;;;;;6240989;22;20200;-87
2022/06/15 07:18:37;;;;;;;4.55;2.80;;;61.00;99.90;;;;;;6240530;23;20160;-85
2022/06/15 07:21:06;;;;;;;4.78;3.05;;;61.30;99.90;;;;;;6243292;22;20208;-87
2022/06/15 07:23:32;;;;;;;8.70;3.65;;;61.30;99.90;;;;;;6241998;22;20156;-88
2022/06/15 07:26:02;;;;;;;6.43;3.28;;;61.30;99.90;;;;;;6244082;22;20180;-86
2022/06/15 07:28:28;;;;;;;6.45;2.92;;;60.80;97.40;;;;;;6245192;22;20211;-86
2022/06/15 07:30:53;;;;;;;5.75;2.80;;;61.20;96.90;;;;;;6243850;23;20180;-85
2022/06/15 07:33:19;;;;;;;5.55;3.05;;;61.80;97.40;;;;;;6244765;23;20144;-86
2022/06/15 07:35:45;;;;;;;5.32;3.08;;;62.40;97.80;;;;;;6242668;22;20187;-87
2022/06/15 07:38:10;;;;;;;4.78;2.72;;;63.00;98.10;;;;;;6243607;23;20137;-87
2022/06/15 07:40:36;;;;;;;6.28;3.28;;;63.20;97.30;;;;;;6244332;23;20157;-87
2022/06/15 07:43:01;;;;;;;5.55;3.03;;;63.50;97.00;;;;;;6243507;23;20175;-87
2022/06/15 07:45:27;;;;;;;6.82;2.97;;;63.00;95.10;;;;;;6244798;22;20176;-87
2022/06/15 07:50:40;;;;;;;6.85;3.10;;;62.20;91.20;;;;;;6243418;23;20143;-87
2022/06/15 07:53:08;;;;;;;5.55;2.80;;;61.90;90.20;;;;;;6216766;23;20152;-87
2022/06/15 07:55:36;;;;;;;4.50;3.10;;;62.10;88.70;;;;;;6216421;22;20156;-89
2022/06/15 07:58:03;;;;;;;5.18;2.67;;;62.30;89.20;;;;;;6214549;23;20156;-86
2022/06/15 08:00:29;;;;;;;5.70;2.90;;;62.60;89.00;;;;;;6243333;23;20156;-88
2022/06/15 08:02:57;;;;;;;6.60;2.85;;;62.80;90.10;;;;;;6243933;23;20148;-87
2022/06/15 08:05:24;;;;;;;7.13;2.50;;;63.00;88.40;;;;;;6215210;22;20732;-85
2022/06/15 08:07:50;;;;;;;5.65;3.35;;;63.10;89.10;;;;;;6243195;23;20144;-87
2022/06/15 08:10:19;;;;;;;10.32;2.95;;;62.20;82.60;;;;;;6243702;23;20149;-87
2022/06/15 08:12:45;;;;;;;4.25;2.60;;;62.20;80.70;;;;;;6242881;23;20160;-88
2022/06/15 08:15:14;;;;;;;7.78;2.78;;;61.90;78.00;;;;;;6241949;23;20156;-87
2022/06/15 08:17:47;;;;;;;6.97;3.22;;;61.40;76.40;;;;;;6241277;23;20155;-87
2022/06/15 08:20:17;;;;;;;6.03;2.78;;;61.30;74.40;;;;;;6243853;23;20141;-87
2022/06/15 08:22:47;;;;;;;5.10;2.33;;;59.70;65.50;;;;;;6243594;23;20182;-85
2022/06/15 08:25:16;;;;;;;5.03;2.67;;;58.50;60.60;;;;;;6242979;23;20503;-83
2022/06/15 08:27:42;;;;;;;3.67;2.55;;;58.00;60.10;;;;;;6241719;23;20212;-85
2022/06/15 08:30:10;;;;;;;5.72;2.90;;;57.30;57.70;;;;;;6243856;23;20176;-87
2022/06/15 08:32:36;;;;;;;7.05;2.58;;;56.70;55.70;;;;;;6243105;23;20603;-86
2022/06/15 08:35:02;;;;;;;6.32;3.97;;;56.40;56.10;;;;;;6243869;23;20652;-85
2022/06/15 08:37:28;;;;;;;3.95;2.53;;;56.50;55.90;;;;;;6243668;22;20184;-85
2022/06/15 08:39:54;;;;;;;4.95;2.88;;;56.70;57.30;;;;;;6244614;23;20559;-85
2022/06/15 08:42:31;;;;;;;4.25;2.88;;;56.80;57.40;;;;;;6244159;23;20177;-85
2022/06/15 08:45:13;;;;;;;7.70;2.13;;;56.70;56.80;;;;;;6246701;23;20143;-85
2022/06/15 08:47:54;;;;;;;5.63;2.35;;;56.70;57.20;;;;;;6245995;22;20186;-85
2022/06/15 08:50:34;;;;;;;3.78;2.28;;;56.20;55.40;;;;;;6245871;23;20522;-85
2022/06/15 08:53:09;;;;;;;5.18;2.67;;;55.70;53.30;;;;;;6245341;23;20140;-85
2022/06/15 08:56:10;;;;;;;6.00;2.50;;;54.90;49.80;;;;;;6218570;22;20179;-84
2022/06/15 08:58:49;;;;;;;5.13;2.73;;;53.20;46.40;;;;;;6224616;23;20206;-86
2022/06/15 09:01:19;;;;;;;4.43;2.80;;;52.40;43.70;;;;;;6245530;23;20202;-84
2022/06/15 09:04:04;;;;;;;6.20;2.60;;;52.10;43.60;;;;;;6244290;23;20375;-84
2022/06/15 09:06:49;;;;;;;8.53;3.20;;;52.10;44.50;;;;;;6244869;22;20422;-84
2022/06/15 09:09:37;;;;;;;5.67;3.27;;;52.20;46.40;;;;;;6244698;23;20364;-85
2022/06/15 09:12:53;;;;;;;7.97;2.90;;;52.50;45.50;;;;;;6245999;23;21063;-86
2022/06/15 09:15:27;;;;;;;8.43;3.10;;;52.90;47.30;;;;;;6245339;22;20390;-86
2022/06/15 09:17:55;;;;;;;4.57;2.77;;;53.00;47.80;;;;;;6244676;23;20407;-86
2022/06/15 09:20:32;;;;;;;6.50;3.10;;;53.20;48.00;;;;;;6218521;23;20602;-86
2022/06/15 09:23:06;;;;;;;5.73;3.07;;;53.40;47.70;;;;;;6243780;23;20383;-88
2022/06/15 09:25:40;;;;;;;8.33;3.03;;;52.60;45.80;;;;;;6244548;22;20399;-85
2022/06/15 09:28:12;;;;;;;7.53;3.53;;;51.90;44.40;;;;;;6244931;23;20441;-85
2022/06/15 09:30:41;;;;;;;5.90;3.10;;;51.80;44.80;;;;;;6244798;23;20390;-85
2022/06/15 09:33:28;;;;;;;6.67;3.30;;;52.20;58.30;;;;;;6217223;23;20857;-84
2022/06/15 09:36:02;;;;;;;8.93;3.60;;;52.50;46.90;;;;;;6244886;22;20431;-85
2022/06/15 09:38:32;;;;;;;6.20;2.80;;;52.10;45.20;;;;;;6245310;23;20374;-85
2022/06/15 09:41:02;;;;;;;6.97;3.90;;;51.00;41.60;;;;;;6218414;23;20445;-84
2022/06/15 09:43:55;;;;;;;8.13;3.50;;;50.80;41.80;;;;;;6217567;23;20394;-84
2022/06/15 09:46:34;;;;;;;5.03;3.17;;;51.10;42.90;;;;;;6240032;22;20466;-86
2022/06/15 09:49:25;;;;;;;8.10;3.73;;;51.00;55.50;;;;;;6245585;23;20443;-86
2022/06/15 09:52:03;;;;;;;7.77;3.40;;;50.70;53.90;;;;;;6244446;23;20359;-85
2022/06/15 09:54:40;;;;;;;5.73;2.67;;;50.80;41.80;;;;;;6243283;23;20375;-85
2022/06/15 09:57:06;;;;;;;4.20;2.30;;;50.60;41.40;;;;;;6244475;22;20911;-85
2022/06/15 09:59:33;;;;;;;5.30;3.03;;;50.60;41.80;;;;;;6244380;23;20375;-85
2022/06/15 10:02:01;;;;;;;7.03;2.43;;;50.40;40.80;;;;;;6244068;23;20156;-85
2022/06/15 10:04:31;;;;;;;12.50;3.53;;;50.00;39.30;;;;;;6244348;23;20385;-85
2022/06/15 10:07:08;;;;;;;5.53;2.60;;;49.50;38.70;;;;;;6216221;23;20433;-85
2022/06/15 10:09:38;;;;;;;7.20;2.47;;;49.50;38.80;;;;;;6217319;23;20747;-85
2022/06/15 10:12:56;;;;;;;4.60;2.50;;;49.50;51.70;;;;;;6243849;23;20368;-86
2022/06/15 10:15:51;;;;;;;5.27;2.50;;;49.80;40.00;;;;;;6243923;22;20443;-85
2022/06/15 10:18:37;;;;;;;5.40;2.43;;;49.00;37.40;;;;;;6226535;23;20726;-85
2022/06/15 10:21:14;;;;;;;3.33;1.70;;;47.80;33.70;;;;;;6244083;23;20471;-86
2022/06/15 10:23:52;;;;;;;4.73;2.50;;;47.40;33.30;;;;;;6243057;23;20379;-86
2022/06/15 10:26:39;;;;;;;5.40;3.00;;;47.40;34.90;;;;;;6216401;23;20431;-86
2022/06/15 10:29:28;;;;;;;4.67;2.50;;;47.00;34.40;;;;;;6243607;23;20461;-85
2022/06/15 10:32:02;;;;;;;4.53;2.20;;;46.60;32.60;;;;;;6243514;23;20363;-85
2022/06/15 10:34:45;;;;;;;8.10;2.03;;;46.50;32.80;;;;;;6243644;23;20376;-86
2022/06/15 10:37:18;;;;;;;3.50;2.10;;;47.10;34.80;;;;;;6243653;22;20747;-86
2022/06/15 10:39:48;;;;;;;5.93;2.23;;;47.30;35.50;;;;;;6216130;23;20400;-85
2022/06/15 10:42:22;;;;;;;5.93;2.63;;;47.70;37.80;;;;;;6243193;23;20421;-85
2022/06/15 10:45:05;;;;;;;5.00;2.20;;;47.80;38.40;;;;;;6242600;23;20375;-85
2022/06/15 10:47:50;;;;;;;3.57;1.77;;;47.90;37.70;;;;;;6243066;22;20392;-85
2022/06/15 10:50:26;;;;;;;3.43;1.80;;;48.00;38.00;;;;;;6243350;23;20352;-85
2022/06/15 10:53:06;;;;;;;3.80;2.00;;;48.10;38.10;;;;;;6243718;23;20348;-85
2022/06/15 11:04:12;;;;;;;5.33;1.93;;;47.90;38.20;;;;;;6242131;23;20425;-85
2022/06/15 11:06:49;;;;;;;3.27;1.73;;;47.60;36.90;;;;;;6242204;22;20423;-85
2022/06/15 11:09:37;;;;;;;6.63;2.07;;;47.10;48.10;;;;;;6243905;23;20681;-86
2022/06/15 11:12:25;;;;;;;2.90;2.00;;;47.20;35.40;;;;;;6216910;23;20458;-86
2022/06/15 11:15:03;;;;;;;4.23;2.00;;;47.40;36.40;;;;;;6223390;23;20466;-85
2022/06/15 11:20:29;;;;;;;4.37;2.03;;;46.50;33.70;;;;;;6243520;23;20360;-86
2022/06/15 11:23:02;;;;;;;7.70;2.20;;;46.10;32.90;;;;;;6242849;23;20379;-86
2022/06/15 11:25:43;;;;;;;3.10;1.70;;;45.40;31.00;;;;;;6243839;22;20415;-85
2022/06/15 11:28:16;;;;;;;3.83;2.17;;;45.20;31.10;;;;;;6243686;23;20368;-85
2022/06/15 11:30:58;;;;;;;7.83;2.30;;;45.30;32.20;;;;;;6243416;23;20690;-86
2022/06/15 11:33:49;;;;;;;5.87;2.37;;;44.90;31.90;;;;;;6243384;23;20941;-85
2022/06/15 11:36:46;;;;;;;4.83;2.30;;;45.00;32.80;;;;;;6243873;22;20808;-85
2022/06/15 11:39:13;;;;;;;5.63;2.30;;;45.30;33.10;;;;;;6243910;23;20410;-85
2022/06/15 11:41:46;;;;;;;7.33;2.03;;;45.60;35.00;;;;;;6245141;23;20384;-85
2022/06/15 11:44:19;;;;;;;4.33;1.90;;;45.80;34.70;;;;;;6242479;23;20466;-86
2022/06/15 11:47:25;;;;;;;5.10;2.23;;;46.00;49.00;;;;;;6243266;22;20423;-85
2022/06/15 11:49:51;;;;;;;7.47;2.30;;;45.60;35.10;;;;;;6181400;23;20874;-85
2022/06/15 11:52:36;;;;;;;3.37;2.00;;;45.10;32.60;;;;;;6215872;23;20394;-84
2022/06/15 11:55:14;;;;;;;6.70;2.00;;;45.20;33.00;;;;;;6243233;23;20137;-86
2022/06/15 11:58:02;;;;;;;3.60;1.70;;;45.50;33.20;;;;;;6243215;22;20387;-86
2022/06/15 12:00:38;;;;;;;7.83;2.40;;;45.20;33.40;;;;;;6243418;23;20694;-86
2022/06/15 12:03:41;;;;;;;2.53;1.37;;;45.20;33.20;;;;;;6243227;23;20366;-85
2022/06/15 12:06:21;;;;;;;3.27;1.80;;;45.20;33.30;;;;;;6242436;22;20423;-85
2022/06/15 12:08:52;;;;;;;6.57;2.67;;;45.30;33.60;;;;;;6216361;23;20477;-86
2022/06/15 12:14:41;;;;;;;5.03;2.13;;;44.40;30.00;;;;;;6243783;23;20371;-86
2022/06/15 12:17:25;;;;;;;4.43;2.17;;;44.50;30.40;;;;;;6242805;22;20400;-85
2022/06/15 12:19:59;;;;;;;4.83;2.00;;;44.70;31.50;;;;;;6218639;23;20379;-86
2022/06/15 12:22:33;;;;;;;5.10;2.07;;;44.50;30.50;;;;;;6245853;23;20355;-86
2022/06/15 12:25:39;;;;;;;4.03;1.73;;;44.50;30.20;;;;;;6223858;23;20406;-86
2022/06/15 12:28:42;;;;;;;6.03;2.20;;;44.40;30.10;;;;;;6255333;23;20447;-86
2022/06/15 12:31:23;;;;;;;2.53;1.53;;;44.20;29.40;;;;;;6254007;23;20355;-87
2022/06/15 12:34:09;;;;;;;5.60;1.93;;;44.00;29.20;;;;;;6243743;23;20400;-86
2022/06/15 12:39:33;;;;;;;5.37;2.00;;;43.10;26.70;;;;;;6255228;23;20419;-82
2022/06/15 13:02:17;;;;;;;;;;;;;;;;;;;;;
2022/06/15 13:05:39;;;;;;;;;;;;;;;;;;;;;
2022/06/15 13:11:38;;;;;;;4.10;2.30;;;40.80;28.00;;;;;;6205013;23;20444;-83
2022/06/15 13:14:56;;;;;;;;;;;;;;;;;;;;;
2022/06/15 13:17:29;;;;;;;3.10;1.90;;;40.40;27.30;;;;;;6247504;22;20467;-83
2022/06/15 13:20:15;;;;;;;3.40;2.20;;;39.60;27.10;;;;;;6229706;23;20498;-86
2022/06/15 13:22:54;;;;;;;;;;;;;;;;;;;;;
2022/06/15 13:25:26;;;;;;;7.50;3.13;;;39.10;26.60;;;;;;6252852;23;20411;-84
2022/06/15 13:27:57;;;;;;;5.77;2.47;;;39.10;27.60;;;;;;6226469;23;20410;-83
2022/06/15 13:31:00;;;;;;;5.73;2.67;;;39.10;28.00;;;;;;6226243;23;20388;-83
2022/06/15 13:33:51;;;;;;;3.40;2.60;;;38.90;28.60;;;;;;6213861;23;20411;-84
2022/06/15 13:36:22;;;;;;;9.30;3.63;;;38.90;28.40;;;;;;6223766;23;20415;-84
2022/06/15 13:38:59;;;;;;;;;;;;;;;;;;;;;
2022/06/15 13:41:33;;;;;;;5.90;2.30;;;38.50;28.20;;;;;;6251697;23;20423;-83
2022/06/15 13:44:04;;;;;;;11.77;3.30;;;37.90;28.00;;;;;;6223067;23;20387;-83
2022/06/15 13:46:54;;;;;;;8.93;2.50;;;37.70;27.70;;;;;;6225072;22;20424;-86
2022/06/15 13:49:36;;;;;;;7.17;2.27;;;37.20;27.00;;;;;;6224715;23;20510;-83
2022/06/15 13:52:28;;;;;;;4.97;2.40;;;37.00;27.00;;;;;;6224323;23;20383;-83
2022/06/15 13:55:20;;;;;;;6.10;2.93;;;36.70;27.30;;;;;;6224744;23;20400;-85
2022/06/15 13:58:03;;;;;;;7.10;3.17;;;36.30;27.80;;;;;;6224327;23;20410;-84
2022/06/15 14:00:49;;;;;;;7.20;3.53;;;36.10;28.80;;;;;;6251670;23;20439;-83
2022/06/15 14:03:24;;;;;;;7.37;3.37;;;35.90;29.80;;;;;;6225543;23;20375;-84
2022/06/15 14:05:58;;;;;;;7.30;3.10;;;35.80;30.00;;;;;;6250287;23;20441;-83
2022/06/15 14:09:03;;;;;;;7.10;3.07;;;35.70;30.70;;;;;;6223339;23;20450;-83
2022/06/15 14:12:08;;;;;;;6.20;2.80;;;35.70;32.10;;;;;;6224953;23;20776;-84
2022/06/15 14:15:15;;;;;;;4.83;3.00;;;35.70;33.20;;;;;;6205823;23;20375;-83
2022/06/15 14:18:20;;;;;;;5.83;3.13;;;35.70;34.00;;;;;;6126492;23;20395;-83
2022/06/15 14:20:47;;;;;;;6.73;2.80;;;35.70;35.40;;;;;;6224087;23;20397;-84
2022/06/15 14:23:38;;;;;;;4.40;2.80;;;35.60;36.40;;;;;;6252255;23;20853;-83
2022/06/15 14:26:11;;;;;;;10.50;3.20;;;35.50;36.00;;;;;;6206600;23;20996;-84
2022/06/15 14:28:37;;;;;;;5.97;2.90;;;35.30;36.10;;;;;;6252694;22;20419;-83
2022/06/15 14:31:28;;;;;;;7.43;2.87;;;35.30;37.20;;;;;;6252326;23;20438;-83
2022/06/15 14:34:02;;;;;;;8.37;2.70;;;35.30;38.10;;;;;;6225248;23;20440;-82
2022/06/15 14:36:30;;;;;;;9.00;3.10;;;35.30;38.70;;;;;;6223669;22;20404;-82
2022/06/15 14:39:00;;;;;;;8.23;3.30;;;35.20;39.70;;;;;;6223614;23;20403;-83
2022/06/15 14:41:32;;;;;;;7.17;3.27;;;34.80;38.70;;;;;;6249032;23;20371;-83
2022/06/15 14:44:06;;;;;;;4.50;3.30;;;34.70;37.10;;;;;;6223400;23;20881;-83
2022/06/15 14:46:41;;;;;;;7.63;3.03;;;34.70;39.40;;;;;;6223254;22;20821;-82
2022/06/15 14:49:12;;;;;;;6.17;3.00;;;34.60;39.20;;;;;;6250084;23;20387;-84
2022/06/15 14:52:18;;;;;;;6.10;2.80;;;34.70;40.60;;;;;;6223339;23;20391;-84
2022/06/15 14:55:16;;;;;;;;;;;;;;;;;;;;;
2022/06/15 14:57:48;;;;;;;4.47;2.60;;;34.70;41.30;;;;;;6250680;22;20423;-85
2022/06/15 15:00:24;;;;;;;5.30;2.53;;;34.30;41.60;;;;;;6251028;23;20418;-83
2022/06/15 15:02:53;;;;;;;7.20;3.07;;;34.30;41.40;;;;;;6250670;23;20420;-82
2022/06/15 15:05:25;;;;;;;8.73;3.10;;;34.20;42.20;;;;;;6250387;23;20380;-82
2022/06/15 15:08:06;;;;;;;4.80;2.40;;;34.20;42.20;;;;;;6221791;23;20485;-83
2022/06/15 15:10:48;;;;;;;6.23;2.90;;;34.10;43.10;;;;;;6250753;23;20364;-84
2022/06/15 15:13:34;;;;;;;6.40;2.60;;;34.00;43.10;;;;;;6249440;23;20364;-82
2022/06/15 15:16:06;;;;;;;9.13;2.43;;;33.90;43.00;;;;;;6223712;23;20700;-84
2022/06/15 15:18:37;;;;;;;4.57;2.67;;;33.80;42.90;;;;;;6223246;23;20419;-83
2022/06/15 15:21:22;;;;;;;7.17;2.60;;;33.80;44.00;;;;;;6222268;23;20392;-83
2022/06/15 15:24:08;;;;;;;;;;;;;;;;;;;;;
2022/06/15 15:26:40;;;;;;;6.27;2.90;;;34.00;45.00;;;;;;6249028;22;20487;-83
2022/06/15 15:35:45;;;;;;;6.83;2.40;;;33.90;46.00;;;;;;6250757;23;20455;-84
2022/06/15 15:38:16;;;;;;;4.80;2.50;;;33.90;45.90;;;;;;6222838;23;20485;-83
2022/06/15 15:40:43;;;;;;;6.17;2.70;;;34.00;47.60;;;;;;6222718;23;20391;-83
2022/06/15 15:43:09;;;;;;;3.87;2.30;;;34.00;47.20;;;;;;6250126;23;20884;-83
2022/06/15 15:45:36;;;;;;;7.87;2.87;;;34.10;47.60;;;;;;6249817;23;20423;-83
2022/06/15 15:48:27;;;;;;;5.37;2.70;;;34.00;47.60;;;;;;6221619;23;20173;-82
2022/06/15 15:51:52;;;;;;;;;;;;;;;;;;;;;
2022/06/15 15:55:03;;;;;;;5.90;2.77;;;33.80;47.10;;;;;;6251123;23;20478;-83
2022/06/15 16:00:40;;;;;;;5.93;2.30;;;33.70;47.20;;;;;;6230123;23;20878;-82
2022/06/15 16:03:41;;;;;;;4.10;2.73;;;33.60;46.30;;;;;;6222243;23;20433;-82
2022/06/15 16:10:11;;;;;;;5.67;2.50;;;32.90;44.80;;;;;;6234628;23;20399;-83
2022/06/15 16:13:02;;;;;;;4.57;2.40;;;32.70;44.00;;;;;;6217145;23;20402;-82
2022/06/15 16:15:40;;;;;;;6.20;2.47;;;32.70;45.90;;;;;;6231663;23;20455;-83
2022/06/15 16:24:47;;;;;;;8.50;2.60;;;33.10;48.40;;;;;;6250934;23;20372;-83
2022/06/15 16:27:15;;;;;;;6.57;2.30;;;33.00;48.70;;;;;;6254048;22;20431;-83
2022/06/15 16:29:46;;;;;;;3.70;1.90;;;32.90;48.90;;;;;;6249626;23;20387;-83
2022/06/15 16:32:15;;;;;;;5.43;2.00;;;32.80;48.10;;;;;;6251195;23;20732;-83
2022/06/15 16:34:43;;;;;;;11.60;2.40;;;32.80;48.50;;;;;;6249677;23;20382;-83
2022/06/15 16:37:28;;;;;;;4.90;2.30;;;32.80;48.50;;;;;;6221232;23;20465;-83
2022/06/15 16:46:46;;;;;;;5.60;2.43;;;32.30;46.90;;;;;;6231259;22;20835;-83
2022/06/15 16:49:14;;;;;;;5.10;2.63;;;32.30;47.30;;;;;;6220870;23;20446;-83
2022/06/15 16:51:42;;;;;;;3.47;2.33;;;32.20;47.10;;;;;;6248988;23;20157;-83
2022/06/15 16:54:10;;;;;;;6.60;2.70;;;32.20;47.90;;;;;;6222691;23;20387;-83
2022/06/15 16:56:41;;;;;;;6.53;2.60;;;32.20;47.90;;;;;;6249092;22;20402;-83
2022/06/15 16:59:14;;;;;;;3.43;2.00;;;32.10;48.40;;;;;;6247419;23;20371;-83
2022/06/15 17:04:59;;;;;;;4.60;2.10;;;31.90;48.10;;;;;;6228276;23;20499;-82
2022/06/15 17:07:36;;;;;;;4.93;2.60;;;31.80;48.20;;;;;;6249288;22;20447;-83
2022/06/15 17:10:08;;;;;;;3.00;2.40;;;31.70;49.50;;;;;;6223653;23;20379;-82
2022/06/15 17:12:45;;;;;;;4.17;2.40;;;31.70;48.80;;;;;;6223732;23;20383;-82
2022/06/15 17:15:31;;;;;;;5.57;2.60;;;31.60;50.30;;;;;;6224988;23;20382;-82
2022/06/15 17:18:45;;;;;;;6.63;2.23;;;31.60;50.40;;;;;;6221948;23;20419;-83
2022/06/15 17:34:54;;;;;;;3.17;2.20;;;31.30;53.50;;;;;;6248862;23;20394;-83
2022/06/15 17:44:24;;;;;;;;;;;;;;;;;;;;;
2022/06/15 17:47:24;;;;;;;5.20;2.60;;;31.50;56.50;;;;;;6250455;22;20483;-84
2022/06/15 17:50:45;;;;;;;;;;;;;;;;;;;;;
2022/06/15 17:53:58;;;;;;;;;;;;;;;;;;;;;
2022/06/15 17:59:51;;;;;;;2.43;2.23;;;31.10;56.70;;;;;;6231919;23;20380;-84
2022/06/15 18:02:32;;;;;;;5.00;2.60;;;30.90;56.60;;;;;;6249166;23;20448;-83
2022/06/15 18:09:25;;;;;;;6.50;2.50;;;30.40;56.30;;;;;;6225117;23;20426;-84
2022/06/15 18:11:52;;;;;;;5.90;2.10;;;30.10;56.40;;;;;;6251662;23;20432;-83
2022/06/15 18:18:23;;;;;;;3.40;2.10;;;29.70;56.40;;;;;;6220016;22;20391;-85
2022/06/15 18:21:31;;;;;;;8.77;3.07;;;29.50;56.50;;;;;;6249653;23;20471;-82
2022/06/15 18:24:39;;;;;;;7.20;2.60;;;29.40;57.10;;;;;;6222898;23;20376;-84
2022/06/15 18:30:34;;;;;;;5.60;2.70;;;29.30;58.40;;;;;;6230766;23;20380;-84
2022/06/15 18:48:49;;;;;;;10.20;2.83;;;28.50;61.50;;;;;;6185958;23;20748;-85
2022/06/15 18:51:16;;;;;;;8.40;2.60;;;28.40;62.70;;;;;;6189208;23;20406;-84
2022/06/15 18:53:42;;;;;;;8.17;2.73;;;28.30;64.40;;;;;;6215624;23;20460;-86
2022/06/15 18:56:08;;;;;;;5.67;2.47;;;28.20;64.30;;;;;;6189267;23;20867;-85
2022/06/15 18:58:35;;;;;;;8.80;2.63;;;28.10;65.40;;;;;;6216229;23;20196;-85
2022/06/15 19:01:01;;;;;;;7.20;2.63;;;28.00;66.30;;;;;;6215174;23;20192;-84
2022/06/15 19:03:26;;;;;;;6.50;2.50;;;27.90;66.60;;;;;;6216223;23;20416;-85
2022/06/15 19:05:52;;;;;;;3.70;2.17;;;27.80;66.50;;;;;;6215847;23;20188;-86
2022/06/15 19:08:19;;;;;;;7.60;3.20;;;27.70;68.20;;;;;;6214992;23;20162;-85
2022/06/15 19:10:46;;;;;;;4.93;2.40;;;27.60;69.40;;;;;;6216849;23;20197;-85
2022/06/15 19:13:17;;;;;;;6.57;3.10;;;27.60;71.20;;;;;;6215172;23;20396;-85
2022/06/15 19:15:44;;;;;;;3.90;2.97;;;27.50;70.90;;;;;;6189317;23;20389;-85
2022/06/15 19:18:09;;;;;;;5.27;3.13;;;27.40;71.10;;;;;;6214565;23;20404;-84
2022/06/15 19:20:36;;;;;;;4.10;2.47;;;27.30;72.40;;;;;;6215357;23;20429;-85
2022/06/15 19:23:03;;;;;;;7.27;2.53;;;27.20;73.70;;;;;;6214828;23;20177;-84
2022/06/15 19:25:30;;;;;;;4.57;2.70;;;27.10;73.40;;;;;;6215142;23;20405;-85